• Join FlightAware (Why Join?)
  • Login
  • US Flag 
01:50AM EDT


 

Airport Tracker/Info


-or-


 

Live Flight TrackerFlight Track Log ✈ N654JR ✈ 03-Mar-2014 ✈ KICT - KADS

Flight Track Log - Related Links

Times and Time Zones

All times are in EST time to prevent confusion due to time zone crossing. See the N654JR flight status page for this flight to view local times or setup timezone preferences in your user account.

Time Position Orientation Groundspeed Altitude Reporting Facility
EST Latitude Longitude Course Direction KTS MPH feet Rate Location/Type
10:21PM 37.6447 -97.4272 186° South 107 123 1,800  Level Kansas City Center
10:21PM 37.6425 -97.4275 186° South 95 109 1,900 1,140 Climbing Kansas City Center
10:22PM 37.6136 -97.4319 187° South 103 119 3,100 1,080 Climbing Kansas City Center
10:23PM 37.6033 -97.4286 166° South 97 112 3,600 1,080 Climbing Kansas City Center
10:23PM 37.5856 -97.4256 172° South 100 115 4,200 1,080 Climbing Kansas City Center
10:24PM 37.5758 -97.4233 170° South 97 112 4,700 840 Climbing Kansas City Center
10:24PM 37.5581 -97.4219 176° South 101 116 5,100 780 Climbing Kansas City Center
10:25PM 37.5461 -97.4203 174° South 99 114 5,500 960 Climbing Kansas City Center
10:25PM 37.5217 -97.4169 174° South 123 142 6,100 960 Climbing Kansas City Center
10:26PM 37.5111 -97.4150 172° South 112 129 6,500 960 Climbing Kansas City Center
10:26PM 37.4858 -97.4147 180° South 133 153 7,100 1,140 Climbing Kansas City Center
10:27PM 37.4667 -97.4097 168° South 128 147 7,700 960 Climbing Kansas City Center
10:27PM 37.4494 -97.4072 173° South 135 155 8,100 840 Climbing Kansas City Center
10:28PM 37.4292 -97.4033 171° South 132 152 8,600 900 Climbing Kansas City Center
10:28PM 37.4111 -97.4025 178° South 139 160 9,000 960 Climbing Kansas City Center
10:29PM 37.3894 -97.3989 172° South 139 160 9,600 960 Climbing Kansas City Center
10:30PM 37.3497 -97.3931 173° South 140 161 10,600 900 Climbing Kansas City Center
10:31PM 37.3075 -97.3886 175° South 145 167 11,500 900 Climbing Kansas City Center
10:32PM 37.2658 -97.3819 173° South 148 170 12,500 480 Climbing Kansas City Center
10:33PM 37.2167 -97.3753 174° South 167 192 12,500 -60 Level Kansas City Center
10:34PM 37.1606 -97.3694 175° South 193 222 12,400 -60 Descending Kansas City Center
10:35PM 37.1053 -97.3611 173° South 195 224 12,400  Level Kansas City Center
10:36PM 37.0497 -97.3506 171° South 198 228 12,400  Level Kansas City Center
10:37PM 36.9828 -97.3417 174° South 200 230 12,400  Level Kansas City Center
10:38PM 36.9281 -97.3339 174° South 200 230 12,400  Level Kansas City Center
10:39PM 36.8717 -97.3281 175° South 200 230 12,400  Level Kansas City Center
10:40PM 36.8214 -97.3208 173° South 200 230 12,400  Level Kansas City Center
10:41PM 36.7664 -97.3114 172° South 199 229 12,400  Level Kansas City Center
10:42PM 36.7114 -97.3075 177° South 199 229 12,400  Level Kansas City Center
10:43PM 36.6453 -97.2978 173° South 199 229 12,400  Level Kansas City Center
10:44PM 36.5897 -97.2900 174° South 199 229 12,400  Level Kansas City Center
10:45PM 36.5342 -97.2844 175° South 199 229 12,400  Level Kansas City Center
10:46PM 36.4786 -97.2781 175° South 199 229 12,400  Level Kansas City Center
10:47PM 36.4228 -97.2694 173° South 199 229 12,400  Level Kansas City Center
10:48PM 36.3678 -97.2628 174° South 199 229 12,400  Level Kansas City Center
10:49PM 36.3119 -97.2553 174° South 200 230 12,400  Level Kansas City Center
10:50PM 36.2561 -97.2481 174° South 200 230 12,400  Level Kansas City Center
10:51PM 36.2008 -97.2400 173° South 200 230 12,400  Level Kansas City Center
10:52PM 36.1456 -97.2339 175° South 200 230 12,500  Climbing Kansas City Center
10:53PM 36.0914 -97.2269 174° South 200 230 12,500  Level Kansas City Center
10:54PM 36.0244 -97.2178 174° South 200 230 12,500  Level Kansas City Center
10:57PM 35.9006 -97.2022 174° South 199 229 12,500  Level Fort Worth Center
10:58PM 35.8481 -97.1947 173° South 201 231 12,500  Level Fort Worth Center
10:59PM 35.7922 -97.1883 175° South 200 230 12,500  Level Fort Worth Center
11:00PM 35.7381 -97.1819 175° South 196 226 12,500  Level Fort Worth Center
11:00PM 35.7369 -97.1811 149° Southeast 200 230 12,500  Level Fort Worth Center
11:01PM 35.6825 -97.1764 176° South 197 227 12,500  Level Fort Worth Center
11:01PM 35.6817 -97.1739 112° Southeast 200 230 12,500  Level Fort Worth Center
11:02PM 35.6289 -97.1678 175° South 199 229 12,500  Level Fort Worth Center
11:02PM 35.6258 -97.1667 164° South 200 230 12,500  Level Fort Worth Center
11:03PM 35.5733 -97.1622 176° South 200 230 12,500  Level Fort Worth Center
11:03PM 35.5708 -97.1592 135° Southeast 200 230 12,500  Level Fort Worth Center
11:04PM 35.5175 -97.1542 176° South 199 229 12,500  Level Fort Worth Center
11:04PM 35.5150 -97.1525 152° Southeast 200 230 12,500  Level Fort Worth Center
11:05PM 35.4597 -97.1464 175° South 199 229 12,500  Level Fort Worth Center
11:05PM 35.4594 -97.1444 100° East 200 230 12,500  Level Fort Worth Center
11:06PM 35.4036 -97.1378 174° South 200 230 12,500  Level Fort Worth Center
11:07PM 35.3478 -97.1308 174° South 200 230 12,500  Level Fort Worth Center
11:08PM 35.2928 -97.1253 175° South 200 230 12,500  Level Fort Worth Center
11:09PM 35.2258 -97.1164 174° South 200 230 12,500  Level Fort Worth Center
11:10PM 35.1706 -97.1092 174° South 200 230 12,500 -60 Level Fort Worth Center
11:11PM 35.1158 -97.1036 175° South 200 230 12,400 -60 Descending Fort Worth Center
11:12PM 35.0597 -97.0953 173° South 200 230 12,400  Level Fort Worth Center
11:13PM 35.0058 -97.0892 175° South 199 229 12,400  Level Fort Worth Center
11:14PM 34.9508 -97.0811 173° South 199 229 12,400  Level Fort Worth Center
11:15PM 34.8978 -97.0747 174° South 197 227 12,400  Level Fort Worth Center
11:16PM 34.8433 -97.0669 173° South 197 227 12,400  Level Fort Worth Center
11:17PM 34.7911 -97.0611 175° South 192 221 12,400  Level Fort Worth Center
11:18PM 34.7372 -97.0542 174° South 192 221 12,400  Level Fort Worth Center
11:19PM 34.6836 -97.0489 175° South 192 221 12,400  Level Fort Worth Center
11:20PM 34.6203 -97.0392 173° South 192 221 12,400  Level Fort Worth Center
11:21PM 34.5669 -97.0325 174° South 192 221 12,400  Level Fort Worth Center
11:22PM 34.5142 -97.0250 173° South 192 221 12,400  Level Fort Worth Center
11:23PM 34.4611 -97.0194 175° South 192 221 12,400  Level Fort Worth Center
11:24PM 34.4081 -97.0128 174° South 192 221 12,400  Level Fort Worth Center
11:25PM 34.3536 -97.0058 174° South 194 223 12,400  Level Fort Worth Center
11:26PM 34.3008 -96.9994 174° South 193 222 12,400  Level Fort Worth Center
11:27PM 34.2481 -96.9939 175° South 193 222 12,400  Level Fort Worth Center
11:28PM 34.1939 -96.9850 172° South 193 222 12,400  Level Fort Worth Center
11:29PM 34.1414 -96.9778 174° South 193 222 12,400  Level Fort Worth Center
11:30PM 34.0833 -96.9714 175° South 192 221 12,500  Climbing Fort Worth Center
11:31PM 34.0306 -96.9653 175° South 192 221 12,500 -300 Level Fort Worth Center
11:32PM 33.9758 -96.9586 174° South 193 222 12,000 -600 Descending Fort Worth Center
11:33PM 33.9181 -96.9497 173° South 203 234 11,400 -600 Descending Fort Worth Center
11:34PM 33.8611 -96.9436 175° South 204 235 10,800 -660 Descending Fort Worth Center
11:35PM 33.7953 -96.9358 174° South 204 235 10,100 -660 Descending Fort Worth Center
11:36PM 33.7372 -96.9283 174° South 209 241 9,500 -600 Descending Fort Worth Center
11:37PM 33.6806 -96.9225 175° South 207 238 8,900 -660 Descending Fort Worth Center
11:38PM 33.6225 -96.9139 173° South 210 242 8,200 -660 Descending Fort Worth Center
11:39PM 33.5606 -96.9072 175° South 210 242 7,600 -600 Descending Fort Worth Center
11:40PM 33.5053 -96.9006 174° South 202 232 7,000 -600 Descending Fort Worth Center
11:41PM 33.4514 -96.8939 174° South 200 230 6,400 -600 Descending Fort Worth Center
11:42PM 33.3989 -96.8875 174° South 199 229 5,800 -600 Descending Fort Worth Center
11:43PM 33.3425 -96.8814 175° South 197 227 5,200 -600 Descending Fort Worth Center
11:44PM 33.2864 -96.8756 175° South 193 222 4,600 -600 Descending Fort Worth Center
11:45PM 33.2364 -96.8694 174° South 187 215 4,100 -540 Descending Fort Worth Center
11:47PM 33.1844 -96.8617 173° South 183 211 3,600 -300 Descending Fort Worth Center
11:48PM 33.1319 -96.8536 173° South 183 211 3,600  Level Fort Worth Center